sensor_id;sensor_type;location;lat;lon;timestamp;temperature;humidity
21047;DHT22;10682;50.874;3.656;2022-07-23T00:00:20;14.30;99.90
21047;DHT22;10682;50.874;3.656;2022-07-23T00:02:48;14.20;99.90
21047;DHT22;10682;50.874;3.656;2022-07-23T00:05:16;14.20;99.90
21047;DHT22;10682;50.874;3.656;2022-07-23T00:07:43;14.10;99.90
21047;DHT22;10682;50.874;3.656;2022-07-23T00:10:10;14.10;99.90
21047;DHT22;10682;50.874;3.656;2022-07-23T00:12:38;14.10;99.90
21047;DHT22;10682;50.874;3.656;2022-07-23T00:15:17;14.10;99.90
21047;DHT22;10682;50.874;3.656;2022-07-23T00:17:44;14.00;99.90
21047;DHT22;10682;50.874;3.656;2022-07-23T00:20:11;14.00;99.90
21047;DHT22;10682;50.874;3.656;2022-07-23T00:22:48;13.90;99.90
21047;DHT22;10682;50.874;3.656;2022-07-23T00:25:18;13.80;99.90
21047;DHT22;10682;50.874;3.656;2022-07-23T00:27:57;13.70;99.90
21047;DHT22;10682;50.874;3.656;2022-07-23T00:30:25;13.60;99.90
21047;DHT22;10682;50.874;3.656;2022-07-23T00:32:55;13.60;99.90
21047;DHT22;10682;50.874;3.656;2022-07-23T00:35:26;13.60;99.90
21047;DHT22;10682;50.874;3.656;2022-07-23T00:37:55;13.50;99.90
21047;DHT22;10682;50.874;3.656;2022-07-23T00:40:23;13.50;99.90
21047;DHT22;10682;50.874;3.656;2022-07-23T00:42:50;13.50;99.90
21047;DHT22;10682;50.874;3.656;2022-07-23T00:45:19;13.50;99.90
21047;DHT22;10682;50.874;3.656;2022-07-23T00:47:47;13.50;99.90
21047;DHT22;10682;50.874;3.656;2022-07-23T00:50:43;13.50;99.90
21047;DHT22;10682;50.874;3.656;2022-07-23T00:53:10;13.50;99.90
21047;DHT22;10682;50.874;3.656;2022-07-23T00:55:38;13.50;99.90
21047;DHT22;10682;50.874;3.656;2022-07-23T00:58:06;13.50;99.90
21047;DHT22;10682;50.874;3.656;2022-07-23T01:00:33;13.40;99.90
21047;DHT22;10682;50.874;3.656;2022-07-23T01:03:01;13.40;99.90
21047;DHT22;10682;50.874;3.656;2022-07-23T01:05:28;13.40;99.90
21047;DHT22;10682;50.874;3.656;2022-07-23T01:07:55;13.40;99.90
21047;DHT22;10682;50.874;3.656;2022-07-23T01:10:23;13.40;99.90
21047;DHT22;10682;50.874;3.656;2022-07-23T01:13:09;13.40;99.90
21047;DHT22;10682;50.874;3.656;2022-07-23T01:15:37;13.30;99.90
21047;DHT22;10682;50.874;3.656;2022-07-23T01:18:06;13.20;99.90
21047;DHT22;10682;50.874;3.656;2022-07-23T01:20:34;13.10;99.90
21047;DHT22;10682;50.874;3.656;2022-07-23T01:23:01;13.10;99.90
21047;DHT22;10682;50.874;3.656;2022-07-23T01:25:29;13.10;99.90
21047;DHT22;10682;50.874;3.656;2022-07-23T01:27:56;13.10;99.90
21047;DHT22;10682;50.874;3.656;2022-07-23T01:30:23;13.00;99.90
21047;DHT22;10682;50.874;3.656;2022-07-23T01:32:50;13.00;99.90
21047;DHT22;10682;50.874;3.656;2022-07-23T01:35:17;13.10;99.90
21047;DHT22;10682;50.874;3.656;2022-07-23T01:37:44;13.10;99.90
21047;DHT22;10682;50.874;3.656;2022-07-23T01:40:11;13.10;99.90
21047;DHT22;10682;50.874;3.656;2022-07-23T01:42:38;13.00;99.90
21047;DHT22;10682;50.874;3.656;2022-07-23T01:45:08;13.10;99.90
21047;DHT22;10682;50.874;3.656;2022-07-23T01:47:35;13.10;99.90
21047;DHT22;10682;50.874;3.656;2022-07-23T01:50:02;13.00;99.90
21047;DHT22;10682;50.874;3.656;2022-07-23T01:52:29;13.00;99.90
21047;DHT22;10682;50.874;3.656;2022-07-23T01:54:56;13.10;99.90
21047;DHT22;10682;50.874;3.656;2022-07-23T01:57:23;13.10;99.90
21047;DHT22;10682;50.874;3.656;2022-07-23T01:59:51;13.00;99.90
21047;DHT22;10682;50.874;3.656;2022-07-23T02:02:18;13.00;99.90
21047;DHT22;10682;50.874;3.656;2022-07-23T02:04:45;13.00;99.90
21047;DHT22;10682;50.874;3.656;2022-07-23T02:07:12;13.00;99.90
21047;DHT22;10682;50.874;3.656;2022-07-23T02:09:39;13.00;99.90
21047;DHT22;10682;50.874;3.656;2022-07-23T02:12:06;13.00;99.90
21047;DHT22;10682;50.874;3.656;2022-07-23T02:14:33;12.90;99.90
21047;DHT22;10682;50.874;3.656;2022-07-23T02:17:04;12.80;99.90
21047;DHT22;10682;50.874;3.656;2022-07-23T02:19:31;12.70;99.90
21047;DHT22;10682;50.874;3.656;2022-07-23T02:21:58;12.70;99.90
21047;DHT22;10682;50.874;3.656;2022-07-23T02:24:25;12.60;99.90
21047;DHT22;10682;50.874;3.656;2022-07-23T02:26:52;12.60;99.90
21047;DHT22;10682;50.874;3.656;2022-07-23T02:29:20;12.60;99.90
21047;DHT22;10682;50.874;3.656;2022-07-23T02:31:48;12.50;99.90
21047;DHT22;10682;50.874;3.656;2022-07-23T02:34:15;12.50;99.90
21047;DHT22;10682;50.874;3.656;2022-07-23T02:36:42;12.50;99.90
21047;DHT22;10682;50.874;3.656;2022-07-23T02:39:09;12.50;99.90
21047;DHT22;10682;50.874;3.656;2022-07-23T02:41:38;12.60;99.90
21047;DHT22;10682;50.874;3.656;2022-07-23T02:44:05;12.60;99.90
21047;DHT22;10682;50.874;3.656;2022-07-23T02:46:35;12.60;99.90
21047;DHT22;10682;50.874;3.656;2022-07-23T02:49:02;12.50;99.90
21047;DHT22;10682;50.874;3.656;2022-07-23T02:51:32;12.40;99.90
21047;DHT22;10682;50.874;3.656;2022-07-23T02:53:59;12.30;99.90
21047;DHT22;10682;50.874;3.656;2022-07-23T02:56:26;12.30;99.90
21047;DHT22;10682;50.874;3.656;2022-07-23T02:58:53;12.40;99.90
21047;DHT22;10682;50.874;3.656;2022-07-23T03:01:20;12.40;99.90
21047;DHT22;10682;50.874;3.656;2022-07-23T03:03:47;12.40;99.90
21047;DHT22;10682;50.874;3.656;2022-07-23T03:06:14;12.40;99.90
21047;DHT22;10682;50.874;3.656;2022-07-23T03:08:41;12.50;99.90
21047;DHT22;10682;50.874;3.656;2022-07-23T03:11:08;12.50;99.90
21047;DHT22;10682;50.874;3.656;2022-07-23T03:13:44;12.50;99.90
21047;DHT22;10682;50.874;3.656;2022-07-23T03:16:15;12.50;99.90
21047;DHT22;10682;50.874;3.656;2022-07-23T03:18:42;12.50;99.90
21047;DHT22;10682;50.874;3.656;2022-07-23T03:21:09;12.40;99.90
21047;DHT22;10682;50.874;3.656;2022-07-23T03:23:36;12.40;99.90
21047;DHT22;10682;50.874;3.656;2022-07-23T03:26:03;12.40;99.90
21047;DHT22;10682;50.874;3.656;2022-07-23T03:28:30;12.30;99.90
21047;DHT22;10682;50.874;3.656;2022-07-23T03:30:58;12.30;99.90
21047;DHT22;10682;50.874;3.656;2022-07-23T03:33:25;12.20;99.90
21047;DHT22;10682;50.874;3.656;2022-07-23T03:35:54;12.20;99.90
21047;DHT22;10682;50.874;3.656;2022-07-23T03:38:27;12.20;99.90
21047;DHT22;10682;50.874;3.656;2022-07-23T03:40:54;12.20;99.90
21047;DHT22;10682;50.874;3.656;2022-07-23T03:43:22;12.20;99.90
21047;DHT22;10682;50.874;3.656;2022-07-23T03:45:54;12.20;99.90
21047;DHT22;10682;50.874;3.656;2022-07-23T03:48:21;12.20;99.90
21047;DHT22;10682;50.874;3.656;2022-07-23T03:50:48;12.20;99.90
21047;DHT22;10682;50.874;3.656;2022-07-23T03:53:15;12.10;99.90
21047;DHT22;10682;50.874;3.656;2022-07-23T03:55:42;12.10;99.90
21047;DHT22;10682;50.874;3.656;2022-07-23T03:58:09;12.10;99.90
21047;DHT22;10682;50.874;3.656;2022-07-23T04:00:36;12.00;99.90
21047;DHT22;10682;50.874;3.656;2022-07-23T04:03:03;12.10;99.90
21047;DHT22;10682;50.874;3.656;2022-07-23T04:05:30;12.10;99.90
21047;DHT22;10682;50.874;3.656;2022-07-23T04:08:04;12.10;99.90
21047;DHT22;10682;50.874;3.656;2022-07-23T04:10:45;12.10;99.90
21047;DHT22;10682;50.874;3.656;2022-07-23T04:13:12;12.10;99.90
21047;DHT22;10682;50.874;3.656;2022-07-23T04:15:39;12.10;99.90
21047;DHT22;10682;50.874;3.656;2022-07-23T04:18:09;12.10;99.90
21047;DHT22;10682;50.874;3.656;2022-07-23T04:20:37;12.20;99.90
21047;DHT22;10682;50.874;3.656;2022-07-23T04:23:06;12.30;99.90
21047;DHT22;10682;50.874;3.656;2022-07-23T04:25:33;12.40;99.90
21047;DHT22;10682;50.874;3.656;2022-07-23T04:28:00;12.50;99.90
21047;DHT22;10682;50.874;3.656;2022-07-23T04:30:27;12.60;99.90
21047;DHT22;10682;50.874;3.656;2022-07-23T04:32:54;12.70;99.90
21047;DHT22;10682;50.874;3.656;2022-07-23T04:35:22;12.70;99.90
21047;DHT22;10682;50.874;3.656;2022-07-23T04:37:52;12.70;99.90
21047;DHT22;10682;50.874;3.656;2022-07-23T04:40:19;12.80;99.90
21047;DHT22;10682;50.874;3.656;2022-07-23T04:42:48;12.70;99.90
21047;DHT22;10682;50.874;3.656;2022-07-23T04:45:15;12.80;99.90
21047;DHT22;10682;50.874;3.656;2022-07-23T04:47:42;12.70;99.90
21047;DHT22;10682;50.874;3.656;2022-07-23T04:50:09;12.70;99.90
21047;DHT22;10682;50.874;3.656;2022-07-23T04:52:37;12.60;99.90
21047;DHT22;10682;50.874;3.656;2022-07-23T04:55:04;12.70;99.90
21047;DHT22;10682;50.874;3.656;2022-07-23T04:57:32;12.70;99.90
21047;DHT22;10682;50.874;3.656;2022-07-23T04:59:59;12.70;99.90
21047;DHT22;10682;50.874;3.656;2022-07-23T05:02:26;12.70;99.90
21047;DHT22;10682;50.874;3.656;2022-07-23T05:04:53;12.80;99.90
21047;DHT22;10682;50.874;3.656;2022-07-23T05:07:20;12.80;99.90
21047;DHT22;10682;50.874;3.656;2022-07-23T05:09:50;12.90;99.90
21047;DHT22;10682;50.874;3.656;2022-07-23T05:12:17;13.00;99.90
21047;DHT22;10682;50.874;3.656;2022-07-23T05:14:44;13.10;99.90
21047;DHT22;10682;50.874;3.656;2022-07-23T05:17:11;13.10;99.90
21047;DHT22;10682;50.874;3.656;2022-07-23T05:19:38;13.20;99.90
21047;DHT22;10682;50.874;3.656;2022-07-23T05:22:05;13.30;99.90
21047;DHT22;10682;50.874;3.656;2022-07-23T05:24:32;13.50;99.90
21047;DHT22;10682;50.874;3.656;2022-07-23T05:27:00;13.60;99.90
21047;DHT22;10682;50.874;3.656;2022-07-23T05:29:27;13.80;99.90
21047;DHT22;10682;50.874;3.656;2022-07-23T05:31:54;13.90;99.90
21047;DHT22;10682;50.874;3.656;2022-07-23T05:34:21;14.00;99.90
21047;DHT22;10682;50.874;3.656;2022-07-23T05:36:48;14.10;99.90
21047;DHT22;10682;50.874;3.656;2022-07-23T05:39:15;14.20;99.90
21047;DHT22;10682;50.874;3.656;2022-07-23T05:41:42;14.30;99.90
21047;DHT22;10682;50.874;3.656;2022-07-23T05:44:09;14.40;99.90
21047;DHT22;10682;50.874;3.656;2022-07-23T05:46:36;14.50;99.90
21047;DHT22;10682;50.874;3.656;2022-07-23T05:49:03;14.50;99.90
21047;DHT22;10682;50.874;3.656;2022-07-23T05:51:32;14.50;99.90
21047;DHT22;10682;50.874;3.656;2022-07-23T05:53:59;14.50;99.90
21047;DHT22;10682;50.874;3.656;2022-07-23T05:56:26;14.50;99.90
21047;DHT22;10682;50.874;3.656;2022-07-23T05:58:54;14.60;99.90
21047;DHT22;10682;50.874;3.656;2022-07-23T06:01:21;14.70;99.90
21047;DHT22;10682;50.874;3.656;2022-07-23T06:03:48;14.90;99.90
21047;DHT22;10682;50.874;3.656;2022-07-23T06:06:15;15.00;99.90
21047;DHT22;10682;50.874;3.656;2022-07-23T06:08:42;15.10;99.90
21047;DHT22;10682;50.874;3.656;2022-07-23T06:11:09;15.30;99.90
21047;DHT22;10682;50.874;3.656;2022-07-23T06:13:36;15.50;99.90
21047;DHT22;10682;50.874;3.656;2022-07-23T06:16:03;15.70;99.90
21047;DHT22;10682;50.874;3.656;2022-07-23T06:18:31;15.80;99.90
21047;DHT22;10682;50.874;3.656;2022-07-23T06:20:58;16.00;99.90
21047;DHT22;10682;50.874;3.656;2022-07-23T06:23:26;16.10;99.90
21047;DHT22;10682;50.874;3.656;2022-07-23T06:25:53;16.20;99.90
21047;DHT22;10682;50.874;3.656;2022-07-23T06:28:20;16.30;99.90
21047;DHT22;10682;50.874;3.656;2022-07-23T06:30:47;16.40;99.90
21047;DHT22;10682;50.874;3.656;2022-07-23T06:33:15;16.60;99.90
21047;DHT22;10682;50.874;3.656;2022-07-23T06:35:42;16.80;99.90
21047;DHT22;10682;50.874;3.656;2022-07-23T06:38:09;16.80;99.90
21047;DHT22;10682;50.874;3.656;2022-07-23T06:40:36;17.00;99.90
21047;DHT22;10682;50.874;3.656;2022-07-23T06:43:03;17.10;99.90
21047;DHT22;10682;50.874;3.656;2022-07-23T06:45:30;17.30;99.90
21047;DHT22;10682;50.874;3.656;2022-07-23T06:47:58;17.40;99.90
21047;DHT22;10682;50.874;3.656;2022-07-23T06:50:25;17.50;99.90
21047;DHT22;10682;50.874;3.656;2022-07-23T06:52:53;17.60;99.90
21047;DHT22;10682;50.874;3.656;2022-07-23T06:55:20;17.70;99.90
21047;DHT22;10682;50.874;3.656;2022-07-23T06:57:47;17.90;99.90
21047;DHT22;10682;50.874;3.656;2022-07-23T07:00:14;18.00;99.90
21047;DHT22;10682;50.874;3.656;2022-07-23T07:02:41;18.10;99.90
21047;DHT22;10682;50.874;3.656;2022-07-23T07:05:08;18.30;99.90
21047;DHT22;10682;50.874;3.656;2022-07-23T07:07:35;18.30;99.90
21047;DHT22;10682;50.874;3.656;2022-07-23T07:10:06;18.30;99.90
21047;DHT22;10682;50.874;3.656;2022-07-23T07:12:41;18.50;99.90
21047;DHT22;10682;50.874;3.656;2022-07-23T07:15:08;18.70;99.90
21047;DHT22;10682;50.874;3.656;2022-07-23T07:17:35;18.80;99.90
21047;DHT22;10682;50.874;3.656;2022-07-23T07:20:02;19.00;99.90
21047;DHT22;10682;50.874;3.656;2022-07-23T07:22:32;19.20;99.90
21047;DHT22;10682;50.874;3.656;2022-07-23T07:24:59;19.40;99.90
21047;DHT22;10682;50.874;3.656;2022-07-23T07:27:26;19.70;99.90
21047;DHT22;10682;50.874;3.656;2022-07-23T07:30:16;19.80;99.90
21047;DHT22;10682;50.874;3.656;2022-07-23T07:32:43;19.90;99.90
21047;DHT22;10682;50.874;3.656;2022-07-23T07:35:26;20.30;99.90
21047;DHT22;10682;50.874;3.656;2022-07-23T07:37:53;20.60;99.90
21047;DHT22;10682;50.874;3.656;2022-07-23T07:40:20;20.90;99.90
21047;DHT22;10682;50.874;3.656;2022-07-23T07:42:50;20.70;99.90
21047;DHT22;10682;50.874;3.656;2022-07-23T07:45:20;20.70;99.90
21047;DHT22;10682;50.874;3.656;2022-07-23T07:47:47;21.00;99.90
21047;DHT22;10682;50.874;3.656;2022-07-23T07:50:15;21.30;99.90
21047;DHT22;10682;50.874;3.656;2022-07-23T07:52:42;21.40;99.90
21047;DHT22;10682;50.874;3.656;2022-07-23T07:55:09;21.60;99.90
21047;DHT22;10682;50.874;3.656;2022-07-23T07:57:37;21.70;99.90
21047;DHT22;10682;50.874;3.656;2022-07-23T08:00:07;22.10;99.90
21047;DHT22;10682;50.874;3.656;2022-07-23T08:02:47;22.70;99.90
21047;DHT22;10682;50.874;3.656;2022-07-23T08:05:25;22.90;99.90
21047;DHT22;10682;50.874;3.656;2022-07-23T08:07:59;23.10;99.90
21047;DHT22;10682;50.874;3.656;2022-07-23T08:10:27;23.30;99.90
21047;DHT22;10682;50.874;3.656;2022-07-23T08:12:55;23.60;99.90
21047;DHT22;10682;50.874;3.656;2022-07-23T08:15:27;23.80;99.90
21047;DHT22;10682;50.874;3.656;2022-07-23T08:17:55;24.00;99.90
21047;DHT22;10682;50.874;3.656;2022-07-23T08:20:24;24.20;99.90
21047;DHT22;10682;50.874;3.656;2022-07-23T08:22:57;24.10;99.90
21047;DHT22;10682;50.874;3.656;2022-07-23T08:25:29;24.00;99.90
21047;DHT22;10682;50.874;3.656;2022-07-23T08:27:58;23.80;99.90
21047;DHT22;10682;50.874;3.656;2022-07-23T08:30:27;23.70;99.90
21047;DHT22;10682;50.874;3.656;2022-07-23T08:32:59;23.70;99.90
21047;DHT22;10682;50.874;3.656;2022-07-23T08:35:32;23.80;99.90
21047;DHT22;10682;50.874;3.656;2022-07-23T08:38:05;24.10;99.90
21047;DHT22;10682;50.874;3.656;2022-07-23T08:40:35;24.20;99.90
21047;DHT22;10682;50.874;3.656;2022-07-23T08:43:11;24.10;99.90
21047;DHT22;10682;50.874;3.656;2022-07-23T08:45:45;24.30;99.90
21047;DHT22;10682;50.874;3.656;2022-07-23T08:48:16;24.40;99.90
21047;DHT22;10682;50.874;3.656;2022-07-23T08:50:51;24.70;99.90
21047;DHT22;10682;50.874;3.656;2022-07-23T08:53:25;24.70;99.90
21047;DHT22;10682;50.874;3.656;2022-07-23T08:55:56;24.90;99.90
21047;DHT22;10682;50.874;3.656;2022-07-23T08:58:25;24.80;99.90
21047;DHT22;10682;50.874;3.656;2022-07-23T09:00:55;24.90;99.90
21047;DHT22;10682;50.874;3.656;2022-07-23T09:03:26;24.90;99.90
21047;DHT22;10682;50.874;3.656;2022-07-23T09:05:58;25.00;99.90
21047;DHT22;10682;50.874;3.656;2022-07-23T09:11:08;25.30;99.90
21047;DHT22;10682;50.874;3.656;2022-07-23T09:13:41;25.50;99.90
21047;DHT22;10682;50.874;3.656;2022-07-23T09:16:13;25.40;99.90
21047;DHT22;10682;50.874;3.656;2022-07-23T09:18:46;25.60;99.90
21047;DHT22;10682;50.874;3.656;2022-07-23T09:21:24;25.70;99.90
21047;DHT22;10682;50.874;3.656;2022-07-23T09:29:17;25.80;99.90
21047;DHT22;10682;50.874;3.656;2022-07-23T09:34:48;25.90;99.90
21047;DHT22;10682;50.874;3.656;2022-07-23T09:37:18;26.00;99.90
21047;DHT22;10682;50.874;3.656;2022-07-23T09:39:47;26.00;99.90
21047;DHT22;10682;50.874;3.656;2022-07-23T09:42:23;26.20;99.90
21047;DHT22;10682;50.874;3.656;2022-07-23T09:44:53;26.40;99.90
21047;DHT22;10682;50.874;3.656;2022-07-23T09:47:28;26.10;99.90
21047;DHT22;10682;50.874;3.656;2022-07-23T09:50:10;26.20;99.90
21047;DHT22;10682;50.874;3.656;2022-07-23T09:52:44;26.40;99.90
21047;DHT22;10682;50.874;3.656;2022-07-23T09:55:15;26.30;99.90
21047;DHT22;10682;50.874;3.656;2022-07-23T09:57:45;25.90;99.90
21047;DHT22;10682;50.874;3.656;2022-07-23T10:00:16;25.90;99.90
21047;DHT22;10682;50.874;3.656;2022-07-23T10:02:45;26.00;99.90
21047;DHT22;10682;50.874;3.656;2022-07-23T10:05:13;26.10;99.90
21047;DHT22;10682;50.874;3.656;2022-07-23T10:07:42;26.40;99.90
21047;DHT22;10682;50.874;3.656;2022-07-23T10:10:17;26.70;99.90
21047;DHT22;10682;50.874;3.656;2022-07-23T10:12:45;26.70;99.90
21047;DHT22;10682;50.874;3.656;2022-07-23T10:15:18;26.70;99.90
21047;DHT22;10682;50.874;3.656;2022-07-23T10:17:45;26.90;99.90
21047;DHT22;10682;50.874;3.656;2022-07-23T10:20:12;27.40;99.90
21047;DHT22;10682;50.874;3.656;2022-07-23T10:25:55;28.10;99.90
21047;DHT22;10682;50.874;3.656;2022-07-23T10:28:40;28.40;99.90
21047;DHT22;10682;50.874;3.656;2022-07-23T10:31:41;28.60;99.90
21047;DHT22;10682;50.874;3.656;2022-07-23T10:37:28;29.20;99.90
21047;DHT22;10682;50.874;3.656;2022-07-23T10:42:40;28.90;99.90
21047;DHT22;10682;50.874;3.656;2022-07-23T10:45:36;28.70;99.90
21047;DHT22;10682;50.874;3.656;2022-07-23T10:48:23;28.10;99.90
21047;DHT22;10682;50.874;3.656;2022-07-23T10:51:17;27.30;99.90
21047;DHT22;10682;50.874;3.656;2022-07-23T10:59:23;27.00;99.90
21047;DHT22;10682;50.874;3.656;2022-07-23T11:01:50;27.00;99.90
21047;DHT22;10682;50.874;3.656;2022-07-23T11:04:18;27.30;99.90
21047;DHT22;10682;50.874;3.656;2022-07-23T11:09:40;27.70;99.90
21047;DHT22;10682;50.874;3.656;2022-07-23T11:15:08;28.10;99.90
21047;DHT22;10682;50.874;3.656;2022-07-23T11:20:22;28.60;99.90
21047;DHT22;10682;50.874;3.656;2022-07-23T11:22:52;29.00;99.90
21047;DHT22;10682;50.874;3.656;2022-07-23T11:27:55;29.60;99.90
21047;DHT22;10682;50.874;3.656;2022-07-23T11:30:44;29.90;99.90
21047;DHT22;10682;50.874;3.656;2022-07-23T11:35:41;29.50;99.90
21047;DHT22;10682;50.874;3.656;2022-07-23T11:38:20;29.30;99.90
21047;DHT22;10682;50.874;3.656;2022-07-23T11:40:52;29.20;99.90
21047;DHT22;10682;50.874;3.656;2022-07-23T11:43:21;28.60;99.90
21047;DHT22;10682;50.874;3.656;2022-07-23T11:45:52;28.70;99.90
21047;DHT22;10682;50.874;3.656;2022-07-23T11:48:22;28.90;99.90
21047;DHT22;10682;50.874;3.656;2022-07-23T11:50:52;29.10;99.90
21047;DHT22;10682;50.874;3.656;2022-07-23T11:53:31;29.60;99.90
21047;DHT22;10682;50.874;3.656;2022-07-23T11:56:08;29.70;99.90
21047;DHT22;10682;50.874;3.656;2022-07-23T11:58:38;29.80;99.90
21047;DHT22;10682;50.874;3.656;2022-07-23T12:01:06;29.50;99.90
21047;DHT22;10682;50.874;3.656;2022-07-23T12:03:50;29.00;99.90
21047;DHT22;10682;50.874;3.656;2022-07-23T12:06:17;28.90;99.90
21047;DHT22;10682;50.874;3.656;2022-07-23T12:08:45;29.10;99.90
21047;DHT22;10682;50.874;3.656;2022-07-23T12:11:15;29.40;99.90
21047;DHT22;10682;50.874;3.656;2022-07-23T12:13:42;29.40;99.90
21047;DHT22;10682;50.874;3.656;2022-07-23T12:16:10;30.00;99.90
21047;DHT22;10682;50.874;3.656;2022-07-23T12:18:37;30.30;99.90
21047;DHT22;10682;50.874;3.656;2022-07-23T12:21:05;30.40;99.90
21047;DHT22;10682;50.874;3.656;2022-07-23T12:23:33;30.60;99.90
21047;DHT22;10682;50.874;3.656;2022-07-23T12:26:02;30.10;99.90
21047;DHT22;10682;50.874;3.656;2022-07-23T12:28:33;29.70;99.90
21047;DHT22;10682;50.874;3.656;2022-07-23T12:31:02;29.60;99.90
21047;DHT22;10682;50.874;3.656;2022-07-23T12:33:31;29.50;99.90
21047;DHT22;10682;50.874;3.656;2022-07-23T12:36:01;29.10;99.90
21047;DHT22;10682;50.874;3.656;2022-07-23T12:38:42;28.80;99.90
21047;DHT22;10682;50.874;3.656;2022-07-23T12:41:16;28.80;99.90
21047;DHT22;10682;50.874;3.656;2022-07-23T12:43:45;29.10;99.90
21047;DHT22;10682;50.874;3.656;2022-07-23T12:46:16;29.30;99.90
21047;DHT22;10682;50.874;3.656;2022-07-23T12:51:29;29.30;99.90
21047;DHT22;10682;50.874;3.656;2022-07-23T12:54:07;29.60;99.90
21047;DHT22;10682;50.874;3.656;2022-07-23T12:56:38;29.60;99.90
21047;DHT22;10682;50.874;3.656;2022-07-23T12:59:09;29.00;99.90
21047;DHT22;10682;50.874;3.656;2022-07-23T13:01:40;29.10;99.90
21047;DHT22;10682;50.874;3.656;2022-07-23T13:04:17;29.60;99.90
21047;DHT22;10682;50.874;3.656;2022-07-23T13:06:51;29.50;99.90
21047;DHT22;10682;50.874;3.656;2022-07-23T13:09:24;29.90;99.90
21047;DHT22;10682;50.874;3.656;2022-07-23T13:11:58;30.20;99.90
21047;DHT22;10682;50.874;3.656;2022-07-23T13:14:27;30.20;99.90
21047;DHT22;10682;50.874;3.656;2022-07-23T13:16:56;30.40;99.90
21047;DHT22;10682;50.874;3.656;2022-07-23T13:19:43;30.30;99.90
21047;DHT22;10682;50.874;3.656;2022-07-23T13:22:13;30.50;99.90
21047;DHT22;10682;50.874;3.656;2022-07-23T13:24:40;30.00;99.90
21047;DHT22;10682;50.874;3.656;2022-07-23T13:27:07;29.30;99.90
21047;DHT22;10682;50.874;3.656;2022-07-23T13:29:37;28.80;99.90
21047;DHT22;10682;50.874;3.656;2022-07-23T13:32:04;28.80;99.90
21047;DHT22;10682;50.874;3.656;2022-07-23T13:34:37;28.80;99.90
21047;DHT22;10682;50.874;3.656;2022-07-23T13:37:06;28.80;99.90
21047;DHT22;10682;50.874;3.656;2022-07-23T13:39:34;29.00;99.90
21047;DHT22;10682;50.874;3.656;2022-07-23T13:42:04;28.90;99.90
21047;DHT22;10682;50.874;3.656;2022-07-23T13:44:34;28.60;99.90
21047;DHT22;10682;50.874;3.656;2022-07-23T13:47:02;28.30;99.90
21047;DHT22;10682;50.874;3.656;2022-07-23T13:49:30;28.00;99.90
21047;DHT22;10682;50.874;3.656;2022-07-23T13:51:57;27.90;99.90
21047;DHT22;10682;50.874;3.656;2022-07-23T13:54:25;28.10;99.90
21047;DHT22;10682;50.874;3.656;2022-07-23T13:56:54;28.60;99.90
21047;DHT22;10682;50.874;3.656;2022-07-23T13:59:23;29.00;99.90
21047;DHT22;10682;50.874;3.656;2022-07-23T14:01:52;28.80;99.90
21047;DHT22;10682;50.874;3.656;2022-07-23T14:04:40;28.90;99.90
21047;DHT22;10682;50.874;3.656;2022-07-23T14:07:08;28.70;99.90
21047;DHT22;10682;50.874;3.656;2022-07-23T14:09:36;28.50;99.90
21047;DHT22;10682;50.874;3.656;2022-07-23T14:12:04;28.80;99.90
21047;DHT22;10682;50.874;3.656;2022-07-23T14:14:32;29.00;99.90
21047;DHT22;10682;50.874;3.656;2022-07-23T14:17:03;28.90;99.90
21047;DHT22;10682;50.874;3.656;2022-07-23T14:19:31;28.60;99.90
21047;DHT22;10682;50.874;3.656;2022-07-23T14:21:58;28.50;99.90
21047;DHT22;10682;50.874;3.656;2022-07-23T14:24:25;28.70;99.90
21047;DHT22;10682;50.874;3.656;2022-07-23T14:27:00;29.10;99.90
21047;DHT22;10682;50.874;3.656;2022-07-23T14:29:28;29.10;99.90
21047;DHT22;10682;50.874;3.656;2022-07-23T14:31:57;29.60;99.90
21047;DHT22;10682;50.874;3.656;2022-07-23T14:34:28;29.80;99.90
21047;DHT22;10682;50.874;3.656;2022-07-23T14:36:59;29.70;99.90
21047;DHT22;10682;50.874;3.656;2022-07-23T14:39:26;29.50;99.90
21047;DHT22;10682;50.874;3.656;2022-07-23T14:41:58;29.30;99.90
21047;DHT22;10682;50.874;3.656;2022-07-23T14:44:35;29.10;99.90
21047;DHT22;10682;50.874;3.656;2022-07-23T14:47:05;28.90;99.90
21047;DHT22;10682;50.874;3.656;2022-07-23T14:49:47;29.10;99.90
21047;DHT22;10682;50.874;3.656;2022-07-23T14:52:14;29.50;99.90
21047;DHT22;10682;50.874;3.656;2022-07-23T14:54:41;29.10;99.90
21047;DHT22;10682;50.874;3.656;2022-07-23T14:57:09;28.80;99.90
21047;DHT22;10682;50.874;3.656;2022-07-23T14:59:36;28.40;99.90
21047;DHT22;10682;50.874;3.656;2022-07-23T15:02:04;28.00;99.90
21047;DHT22;10682;50.874;3.656;2022-07-23T15:04:31;27.90;99.90
21047;DHT22;10682;50.874;3.656;2022-07-23T15:07:04;28.00;99.90
21047;DHT22;10682;50.874;3.656;2022-07-23T15:09:31;28.00;99.90
21047;DHT22;10682;50.874;3.656;2022-07-23T15:11:59;27.90;99.90
21047;DHT22;10682;50.874;3.656;2022-07-23T15:14:26;27.80;99.90
21047;DHT22;10682;50.874;3.656;2022-07-23T15:17:00;27.80;99.90
21047;DHT22;10682;50.874;3.656;2022-07-23T15:19:27;27.50;99.90
21047;DHT22;10682;50.874;3.656;2022-07-23T15:21:56;27.50;99.90
21047;DHT22;10682;50.874;3.656;2022-07-23T15:24:23;27.60;99.90
21047;DHT22;10682;50.874;3.656;2022-07-23T15:26:50;27.60;99.90
21047;DHT22;10682;50.874;3.656;2022-07-23T15:29:17;27.60;99.90
21047;DHT22;10682;50.874;3.656;2022-07-23T15:31:47;27.40;99.90
21047;DHT22;10682;50.874;3.656;2022-07-23T15:34:22;27.40;99.90
21047;DHT22;10682;50.874;3.656;2022-07-23T15:36:49;27.80;99.90
21047;DHT22;10682;50.874;3.656;2022-07-23T15:39:18;28.20;99.90
21047;DHT22;10682;50.874;3.656;2022-07-23T15:41:45;28.20;99.90
21047;DHT22;10682;50.874;3.656;2022-07-23T15:44:14;28.00;99.90
21047;DHT22;10682;50.874;3.656;2022-07-23T15:46:56;27.80;99.90
21047;DHT22;10682;50.874;3.656;2022-07-23T15:49:26;27.60;99.90
21047;DHT22;10682;50.874;3.656;2022-07-23T15:51:54;27.30;99.90
21047;DHT22;10682;50.874;3.656;2022-07-23T15:54:21;27.10;99.90
21047;DHT22;10682;50.874;3.656;2022-07-23T15:56:49;27.00;99.90
21047;DHT22;10682;50.874;3.656;2022-07-23T15:59:17;26.90;99.90
21047;DHT22;10682;50.874;3.656;2022-07-23T16:01:44;27.10;99.90
21047;DHT22;10682;50.874;3.656;2022-07-23T16:04:11;27.50;99.90
21047;DHT22;10682;50.874;3.656;2022-07-23T16:06:38;28.00;99.90
21047;DHT22;10682;50.874;3.656;2022-07-23T16:09:08;28.40;99.90
21047;DHT22;10682;50.874;3.656;2022-07-23T16:11:45;28.60;99.90
21047;DHT22;10682;50.874;3.656;2022-07-23T16:14:12;28.90;99.90
21047;DHT22;10682;50.874;3.656;2022-07-23T16:16:40;29.10;99.90
21047;DHT22;10682;50.874;3.656;2022-07-23T16:19:08;28.90;99.90
21047;DHT22;10682;50.874;3.656;2022-07-23T16:21:35;28.90;99.90
21047;DHT22;10682;50.874;3.656;2022-07-23T16:24:03;28.70;99.90
21047;DHT22;10682;50.874;3.656;2022-07-23T16:26:31;28.50;99.90